sensor_id;sensor_type;location;lat;lon;timestamp;P1;durP1;ratioP1;P2;durP2;ratioP2
63350;SDS011;64988;51.058;17.040;2022-12-20T00:00:52;38.25;;;16.08;;
63350;SDS011;64988;51.058;17.040;2022-12-20T00:06:45;35.30;;;15.67;;
63350;SDS011;64988;51.058;17.040;2022-12-20T00:12:37;35.28;;;16.20;;
63350;SDS011;64988;51.058;17.040;2022-12-20T00:18:30;35.70;;;16.77;;
63350;SDS011;64988;51.058;17.040;2022-12-20T00:24:23;34.58;;;16.75;;
63350;SDS011;64988;51.058;17.040;2022-12-20T00:30:17;40.33;;;16.65;;
63350;SDS011;64988;51.058;17.040;2022-12-20T00:36:10;32.70;;;15.33;;
63350;SDS011;64988;51.058;17.040;2022-12-20T00:42:02;34.33;;;14.93;;
63350;SDS011;64988;51.058;17.040;2022-12-20T00:47:54;37.90;;;16.88;;
63350;SDS011;64988;51.058;17.040;2022-12-20T00:53:48;42.25;;;17.42;;
63350;SDS011;64988;51.058;17.040;2022-12-20T00:59:40;40.33;;;16.90;;
63350;SDS011;64988;51.058;17.040;2022-12-20T01:11:28;40.23;;;16.43;;
63350;SDS011;64988;51.058;17.040;2022-12-20T01:17:21;37.30;;;17.35;;
63350;SDS011;64988;51.058;17.040;2022-12-20T01:23:13;41.20;;;17.67;;
63350;SDS011;64988;51.058;17.040;2022-12-20T01:29:06;39.83;;;16.50;;
63350;SDS011;64988;51.058;17.040;2022-12-20T01:34:59;38.40;;;16.33;;
63350;SDS011;64988;51.058;17.040;2022-12-20T01:40:51;39.72;;;17.40;;
63350;SDS011;64988;51.058;17.040;2022-12-20T01:46:44;42.33;;;17.40;;
63350;SDS011;64988;51.058;17.040;2022-12-20T01:52:39;43.50;;;17.70;;
63350;SDS011;64988;51.058;17.040;2022-12-20T01:58:35;42.25;;;17.10;;
63350;SDS011;64988;51.058;17.040;2022-12-20T02:04:30;48.78;;;19.08;;
63350;SDS011;64988;51.058;17.040;2022-12-20T02:10:23;44.20;;;19.45;;
63350;SDS011;64988;51.058;17.040;2022-12-20T02:16:28;32.00;;;13.50;;
63350;SDS011;64988;51.058;17.040;2022-12-20T02:28:39;42.22;;;17.95;;
63350;SDS011;64988;51.058;17.040;2022-12-20T02:34:37;33.15;;;16.27;;
63350;SDS011;64988;51.058;17.040;2022-12-20T02:40:32;37.75;;;15.88;;
63350;SDS011;64988;51.058;17.040;2022-12-20T02:46:31;44.63;;;17.67;;
63350;SDS011;64988;51.058;17.040;2022-12-20T02:52:25;40.10;;;18.02;;
63350;SDS011;64988;51.058;17.040;2022-12-20T02:58:25;39.55;;;18.38;;
63350;SDS011;64988;51.058;17.040;2022-12-20T03:04:24;41.22;;;18.02;;
63350;SDS011;64988;51.058;17.040;2022-12-20T03:10:20;44.63;;;17.42;;
63350;SDS011;64988;51.058;17.040;2022-12-20T03:16:15;39.53;;;16.95;;
63350;SDS011;64988;51.058;17.040;2022-12-20T03:22:08;36.97;;;15.75;;
63350;SDS011;64988;51.058;17.040;2022-12-20T03:28:02;37.25;;;15.90;;
63350;SDS011;64988;51.058;17.040;2022-12-20T03:33:55;34.70;;;15.83;;
63350;SDS011;64988;51.058;17.040;2022-12-20T03:39:48;37.53;;;16.92;;
63350;SDS011;64988;51.058;17.040;2022-12-20T03:45:41;41.85;;;17.30;;
63350;SDS011;64988;51.058;17.040;2022-12-20T03:51:34;41.00;;;16.83;;
63350;SDS011;64988;51.058;17.040;2022-12-20T03:57:27;45.05;;;17.85;;
63350;SDS011;64988;51.058;17.040;2022-12-20T04:03:20;35.20;;;16.30;;
63350;SDS011;64988;51.058;17.040;2022-12-20T04:09:14;41.37;;;18.20;;
63350;SDS011;64988;51.058;17.040;2022-12-20T04:15:12;39.10;;;18.08;;
63350;SDS011;64988;51.058;17.040;2022-12-20T04:21:06;39.28;;;15.55;;
63350;SDS011;64988;51.058;17.040;2022-12-20T04:27:02;38.22;;;17.90;;
63350;SDS011;64988;51.058;17.040;2022-12-20T04:32:55;43.08;;;19.60;;
63350;SDS011;64988;51.058;17.040;2022-12-20T04:38:50;41.38;;;18.20;;
63350;SDS011;64988;51.058;17.040;2022-12-20T04:56:30;40.13;;;17.85;;
63350;SDS011;64988;51.058;17.040;2022-12-20T05:02:28;41.13;;;18.13;;
63350;SDS011;64988;51.058;17.040;2022-12-20T05:08:31;38.10;;;18.75;;
63350;SDS011;64988;51.058;17.040;2022-12-20T05:14:25;44.47;;;18.85;;
63350;SDS011;64988;51.058;17.040;2022-12-20T05:20:18;41.70;;;18.60;;
63350;SDS011;64988;51.058;17.040;2022-12-20T05:32:11;47.40;;;19.40;;
63350;SDS011;64988;51.058;17.040;2022-12-20T05:38:05;45.35;;;18.77;;
63350;SDS011;64988;51.058;17.040;2022-12-20T05:43:59;48.25;;;20.17;;
63350;SDS011;64988;51.058;17.040;2022-12-20T05:49:55;45.92;;;18.73;;
63350;SDS011;64988;51.058;17.040;2022-12-20T06:01:43;49.22;;;20.13;;
63350;SDS011;64988;51.058;17.040;2022-12-20T06:07:36;47.30;;;19.42;;
63350;SDS011;64988;51.058;17.040;2022-12-20T06:13:29;42.20;;;18.08;;
63350;SDS011;64988;51.058;17.040;2022-12-20T06:19:23;50.10;;;20.63;;
63350;SDS011;64988;51.058;17.040;2022-12-20T06:25:18;59.83;;;24.42;;
63350;SDS011;64988;51.058;17.040;2022-12-20T06:31:11;49.25;;;21.35;;
63350;SDS011;64988;51.058;17.040;2022-12-20T06:37:07;55.10;;;22.52;;
63350;SDS011;64988;51.058;17.040;2022-12-20T06:43:01;50.28;;;21.27;;
63350;SDS011;64988;51.058;17.040;2022-12-20T06:48:55;52.63;;;21.08;;
63350;SDS011;64988;51.058;17.040;2022-12-20T06:54:48;55.00;;;20.98;;
63350;SDS011;64988;51.058;17.040;2022-12-20T07:00:42;55.65;;;20.40;;
63350;SDS011;64988;51.058;17.040;2022-12-20T07:06:35;41.67;;;19.70;;
63350;SDS011;64988;51.058;17.040;2022-12-20T07:12:27;39.53;;;18.83;;
63350;SDS011;64988;51.058;17.040;2022-12-20T07:18:20;41.75;;;17.48;;
63350;SDS011;64988;51.058;17.040;2022-12-20T07:24:13;50.65;;;19.40;;
63350;SDS011;64988;51.058;17.040;2022-12-20T07:30:07;50.42;;;18.67;;
63350;SDS011;64988;51.058;17.040;2022-12-20T07:36:06;46.40;;;19.25;;
63350;SDS011;64988;51.058;17.040;2022-12-20T07:42:02;46.15;;;19.33;;
63350;SDS011;64988;51.058;17.040;2022-12-20T07:48:05;47.33;;;19.20;;
63350;SDS011;64988;51.058;17.040;2022-12-20T07:54:11;49.58;;;18.75;;
63350;SDS011;64988;51.058;17.040;2022-12-20T08:00:08;44.72;;;18.90;;
63350;SDS011;64988;51.058;17.040;2022-12-20T08:06:04;55.92;;;21.33;;
63350;SDS011;64988;51.058;17.040;2022-12-20T08:11:58;49.92;;;21.50;;
63350;SDS011;64988;51.058;17.040;2022-12-20T08:17:52;53.75;;;21.48;;
63350;SDS011;64988;51.058;17.040;2022-12-20T08:23:44;46.53;;;20.27;;
63350;SDS011;64988;51.058;17.040;2022-12-20T08:29:37;49.50;;;21.35;;
63350;SDS011;64988;51.058;17.040;2022-12-20T08:35:30;45.92;;;21.73;;
63350;SDS011;64988;51.058;17.040;2022-12-20T08:41:23;53.92;;;21.27;;
63350;SDS011;64988;51.058;17.040;2022-12-20T08:47:16;45.60;;;21.40;;
63350;SDS011;64988;51.058;17.040;2022-12-20T08:53:08;48.88;;;21.35;;
63350;SDS011;64988;51.058;17.040;2022-12-20T08:59:02;49.97;;;21.10;;
63350;SDS011;64988;51.058;17.040;2022-12-20T09:10:48;45.30;;;21.67;;
63350;SDS011;64988;51.058;17.040;2022-12-20T09:16:43;54.40;;;22.33;;
63350;SDS011;64988;51.058;17.040;2022-12-20T09:22:35;49.90;;;21.23;;
63350;SDS011;64988;51.058;17.040;2022-12-20T09:28:27;41.67;;;19.63;;
63350;SDS011;64988;51.058;17.040;2022-12-20T09:34:22;43.75;;;19.90;;
63350;SDS011;64988;51.058;17.040;2022-12-20T09:40:17;44.55;;;20.85;;
63350;SDS011;64988;51.058;17.040;2022-12-20T09:46:12;47.08;;;20.88;;
63350;SDS011;64988;51.058;17.040;2022-12-20T10:04:28;45.22;;;19.73;;
63350;SDS011;64988;51.058;17.040;2022-12-20T10:16:43;47.97;;;19.98;;
63350;SDS011;64988;51.058;17.040;2022-12-20T10:22:43;49.38;;;21.27;;
63350;SDS011;64988;51.058;17.040;2022-12-20T10:28:42;50.25;;;21.52;;
63350;SDS011;64988;51.058;17.040;2022-12-20T10:34:58;47.80;;;20.63;;
63350;SDS011;64988;51.058;17.040;2022-12-20T10:41:10;52.15;;;22.50;;
63350;SDS011;64988;51.058;17.040;2022-12-20T10:47:21;52.55;;;21.58;;
63350;SDS011;64988;51.058;17.040;2022-12-20T10:53:23;57.72;;;23.48;;
63350;SDS011;64988;51.058;17.040;2022-12-20T11:17:05;60.13;;;26.42;;
63350;SDS011;64988;51.058;17.040;2022-12-20T11:23:35;58.53;;;26.75;;
63350;SDS011;64988;51.058;17.040;2022-12-20T11:29:41;58.65;;;26.83;;
63350;SDS011;64988;51.058;17.040;2022-12-20T11:42:54;55.47;;;24.27;;
63350;SDS011;64988;51.058;17.040;2022-12-20T11:55:13;54.83;;;23.80;;
63350;SDS011;64988;51.058;17.040;2022-12-20T12:01:18;56.50;;;25.98;;
63350;SDS011;64988;51.058;17.040;2022-12-20T12:07:21;53.80;;;24.77;;
63350;SDS011;64988;51.058;17.040;2022-12-20T12:13:20;49.15;;;23.40;;
63350;SDS011;64988;51.058;17.040;2022-12-20T12:19:16;49.70;;;22.90;;
63350;SDS011;64988;51.058;17.040;2022-12-20T12:25:10;54.27;;;24.80;;
63350;SDS011;64988;51.058;17.040;2022-12-20T12:31:12;52.70;;;24.00;;
63350;SDS011;64988;51.058;17.040;2022-12-20T12:37:25;50.72;;;24.23;;
63350;SDS011;64988;51.058;17.040;2022-12-20T12:43:43;51.88;;;23.60;;
63350;SDS011;64988;51.058;17.040;2022-12-20T12:49:50;57.15;;;25.13;;
63350;SDS011;64988;51.058;17.040;2022-12-20T12:55:47;57.55;;;26.13;;
63350;SDS011;64988;51.058;17.040;2022-12-20T13:08:14;62.33;;;27.00;;
63350;SDS011;64988;51.058;17.040;2022-12-20T13:14:42;60.42;;;27.17;;
63350;SDS011;64988;51.058;17.040;2022-12-20T13:20:33;66.68;;;27.73;;
63350;SDS011;64988;51.058;17.040;2022-12-20T13:26:46;65.47;;;30.10;;
63350;SDS011;64988;51.058;17.040;2022-12-20T13:44:35;55.53;;;26.67;;
63350;SDS011;64988;51.058;17.040;2022-12-20T13:50:37;52.53;;;24.13;;
63350;SDS011;64988;51.058;17.040;2022-12-20T13:56:38;55.95;;;24.08;;
63350;SDS011;64988;51.058;17.040;2022-12-20T14:02:34;57.00;;;24.08;;
63350;SDS011;64988;51.058;17.040;2022-12-20T14:08:33;60.80;;;25.33;;
63350;SDS011;64988;51.058;17.040;2022-12-20T14:14:30;62.13;;;25.77;;
63350;SDS011;64988;51.058;17.040;2022-12-20T14:20:28;58.08;;;24.30;;
63350;SDS011;64988;51.058;17.040;2022-12-20T14:26:25;54.33;;;24.92;;
63350;SDS011;64988;51.058;17.040;2022-12-20T14:32:21;54.70;;;21.50;;
63350;SDS011;64988;51.058;17.040;2022-12-20T14:38:19;57.37;;;23.33;;
63350;SDS011;64988;51.058;17.040;2022-12-20T14:44:16;61.38;;;25.00;;
63350;SDS011;64988;51.058;17.040;2022-12-20T14:50:23;56.20;;;25.08;;
63350;SDS011;64988;51.058;17.040;2022-12-20T14:56:21;57.45;;;25.38;;
63350;SDS011;64988;51.058;17.040;2022-12-20T15:03:24;63.58;;;25.50;;
63350;SDS011;64988;51.058;17.040;2022-12-20T15:08:47;58.22;;;23.83;;
63350;SDS011;64988;51.058;17.040;2022-12-20T15:14:40;65.57;;;25.88;;
63350;SDS011;64988;51.058;17.040;2022-12-20T15:20:33;68.15;;;27.13;;
63350;SDS011;64988;51.058;17.040;2022-12-20T15:26:26;61.78;;;25.75;;
63350;SDS011;64988;51.058;17.040;2022-12-20T15:32:22;53.83;;;23.73;;
63350;SDS011;64988;51.058;17.040;2022-12-20T15:38:22;68.57;;;26.73;;
63350;SDS011;64988;51.058;17.040;2022-12-20T15:44:36;63.30;;;25.63;;
63350;SDS011;64988;51.058;17.040;2022-12-20T15:50:29;62.60;;;25.52;;
63350;SDS011;64988;51.058;17.040;2022-12-20T15:56:23;50.22;;;20.50;;
63350;SDS011;64988;51.058;17.040;2022-12-20T16:02:20;57.47;;;23.15;;
63350;SDS011;64988;51.058;17.040;2022-12-20T16:08:16;61.00;;;26.23;;
63350;SDS011;64988;51.058;17.040;2022-12-20T16:14:15;64.85;;;26.55;;
63350;SDS011;64988;51.058;17.040;2022-12-20T16:20:16;54.08;;;23.60;;
63350;SDS011;64988;51.058;17.040;2022-12-20T16:26:16;54.53;;;22.20;;
63350;SDS011;64988;51.058;17.040;2022-12-20T16:32:13;55.15;;;24.33;;
63350;SDS011;64988;51.058;17.040;2022-12-20T16:38:07;57.35;;;23.02;;
63350;SDS011;64988;51.058;17.040;2022-12-20T16:44:00;62.13;;;25.00;;
63350;SDS011;64988;51.058;17.040;2022-12-20T16:49:54;57.25;;;24.88;;
63350;SDS011;64988;51.058;17.040;2022-12-20T16:55:46;53.83;;;22.67;;
63350;SDS011;64988;51.058;17.040;2022-12-20T17:01:39;56.38;;;23.65;;
63350;SDS011;64988;51.058;17.040;2022-12-20T17:07:34;53.60;;;23.98;;
63350;SDS011;64988;51.058;17.040;2022-12-20T17:13:32;54.40;;;22.30;;
63350;SDS011;64988;51.058;17.040;2022-12-20T17:19:27;53.40;;;23.15;;
63350;SDS011;64988;51.058;17.040;2022-12-20T17:31:19;56.95;;;22.50;;
63350;SDS011;64988;51.058;17.040;2022-12-20T17:37:20;62.65;;;25.50;;
63350;SDS011;64988;51.058;17.040;2022-12-20T17:43:24;58.28;;;24.65;;
63350;SDS011;64988;51.058;17.040;2022-12-20T17:49:17;62.38;;;27.75;;
63350;SDS011;64988;51.058;17.040;2022-12-20T17:55:22;66.28;;;25.75;;
63350;SDS011;64988;51.058;17.040;2022-12-20T18:01:20;65.05;;;28.33;;
63350;SDS011;64988;51.058;17.040;2022-12-20T18:07:13;66.68;;;26.00;;
63350;SDS011;64988;51.058;17.040;2022-12-20T18:13:06;61.42;;;27.55;;
63350;SDS011;64988;51.058;17.040;2022-12-20T18:18:59;55.92;;;23.27;;
63350;SDS011;64988;51.058;17.040;2022-12-20T18:24:53;69.10;;;27.08;;
63350;SDS011;64988;51.058;17.040;2022-12-20T18:30:46;65.82;;;27.88;;
63350;SDS011;64988;51.058;17.040;2022-12-20T18:36:39;75.47;;;29.20;;
63350;SDS011;64988;51.058;17.040;2022-12-20T18:42:31;70.88;;;29.73;;
63350;SDS011;64988;51.058;17.040;2022-12-20T18:48:26;71.80;;;30.75;;
63350;SDS011;64988;51.058;17.040;2022-12-20T18:54:18;61.70;;;29.40;;
63350;SDS011;64988;51.058;17.040;2022-12-20T19:00:11;69.00;;;29.98;;
63350;SDS011;64988;51.058;17.040;2022-12-20T19:06:04;79.18;;;32.30;;
63350;SDS011;64988;51.058;17.040;2022-12-20T19:11:57;72.73;;;29.07;;
63350;SDS011;64988;51.058;17.040;2022-12-20T19:17:49;64.33;;;26.80;;
63350;SDS011;64988;51.058;17.040;2022-12-20T19:23:43;60.17;;;25.03;;
63350;SDS011;64988;51.058;17.040;2022-12-20T19:29:36;54.17;;;25.05;;
63350;SDS011;64988;51.058;17.040;2022-12-20T19:35:31;54.05;;;24.15;;
63350;SDS011;64988;51.058;17.040;2022-12-20T19:41:43;68.80;;;29.08;;
63350;SDS011;64988;51.058;17.040;2022-12-20T19:47:56;62.10;;;27.50;;
63350;SDS011;64988;51.058;17.040;2022-12-20T19:53:50;63.90;;;26.30;;
63350;SDS011;64988;51.058;17.040;2022-12-20T19:59:44;55.63;;;23.20;;
63350;SDS011;64988;51.058;17.040;2022-12-20T20:05:44;56.58;;;24.50;;
63350;SDS011;64988;51.058;17.040;2022-12-20T20:11:37;49.40;;;23.10;;
63350;SDS011;64988;51.058;17.040;2022-12-20T20:17:30;53.73;;;23.57;;
63350;SDS011;64988;51.058;17.040;2022-12-20T20:23:23;58.50;;;23.47;;
63350;SDS011;64988;51.058;17.040;2022-12-20T20:29:18;51.88;;;23.75;;
63350;SDS011;64988;51.058;17.040;2022-12-20T20:35:10;62.78;;;26.80;;
63350;SDS011;64988;51.058;17.040;2022-12-20T20:41:04;63.25;;;26.92;;
63350;SDS011;64988;51.058;17.040;2022-12-20T20:46:57;69.05;;;27.95;;
63350;SDS011;64988;51.058;17.040;2022-12-20T20:52:52;71.30;;;28.60;;
63350;SDS011;64988;51.058;17.040;2022-12-20T20:58:45;56.33;;;25.08;;
63350;SDS011;64988;51.058;17.040;2022-12-20T21:04:38;57.45;;;25.38;;
63350;SDS011;64988;51.058;17.040;2022-12-20T21:10:31;59.83;;;25.90;;
63350;SDS011;64988;51.058;17.040;2022-12-20T21:16:25;59.08;;;25.50;;
63350;SDS011;64988;51.058;17.040;2022-12-20T21:22:18;60.10;;;24.63;;
63350;SDS011;64988;51.058;17.040;2022-12-20T21:34:11;66.65;;;26.50;;
63350;SDS011;64988;51.058;17.040;2022-12-20T21:40:04;62.53;;;26.27;;
63350;SDS011;64988;51.058;17.040;2022-12-20T21:45:58;48.55;;;21.90;;
63350;SDS011;64988;51.058;17.040;2022-12-20T21:51:52;54.53;;;22.85;;
63350;SDS011;64988;51.058;17.040;2022-12-20T21:57:47;48.50;;;20.77;;
63350;SDS011;64988;51.058;17.040;2022-12-20T22:03:40;50.05;;;23.23;;
63350;SDS011;64988;51.058;17.040;2022-12-20T22:09:33;60.58;;;24.58;;
63350;SDS011;64988;51.058;17.040;2022-12-20T22:15:26;48.25;;;22.38;;
63350;SDS011;64988;51.058;17.040;2022-12-20T22:21:21;49.10;;;21.25;;
63350;SDS011;64988;51.058;17.040;2022-12-20T22:27:16;53.03;;;22.02;;
63350;SDS011;64988;51.058;17.040;2022-12-20T22:33:09;59.88;;;21.90;;
63350;SDS011;64988;51.058;17.040;2022-12-20T22:39:02;50.25;;;20.30;;
63350;SDS011;64988;51.058;17.040;2022-12-20T22:44:55;51.58;;;20.02;;
63350;SDS011;64988;51.058;17.040;2022-12-20T22:50:48;49.95;;;20.35;;
63350;SDS011;64988;51.058;17.040;2022-12-20T22:56:41;49.45;;;20.00;;
63350;SDS011;64988;51.058;17.040;2022-12-20T23:02:34;57.30;;;21.58;;
63350;SDS011;64988;51.058;17.040;2022-12-20T23:08:28;54.60;;;22.20;;
63350;SDS011;64988;51.058;17.040;2022-12-20T23:14:22;59.50;;;21.90;;
63350;SDS011;64988;51.058;17.040;2022-12-20T23:20:33;49.15;;;21.17;;
63350;SDS011;64988;51.058;17.040;2022-12-20T23:26:44;52.92;;;21.52;;
63350;SDS011;64988;51.058;17.040;2022-12-20T23:32:37;57.30;;;22.95;;
63350;SDS011;64988;51.058;17.040;2022-12-20T23:38:31;56.15;;;21.35;;
63350;SDS011;64988;51.058;17.040;2022-12-20T23:44:24;54.92;;;23.77;;
63350;SDS011;64988;51.058;17.040;2022-12-20T23:50:16;55.67;;;22.43;;
63350;SDS011;64988;51.058;17.040;2022-12-20T23:56:10;51.75;;;22.30;;
